Time;durP1;ratioP1;P1;durP2;ratioP2;P2;SDS_P1;SDS_P2;PMS_P1;PMS_P2;Temp;Humidity;BMP_temperature;BMP_pressure;BME280_temperature;BME280_humidity;BME280_pressure;Samples;Min_cycle;Max_cycle;Signal;HPM_P1;HPM_P2
2021/01/18 00:00:11;;;;;;;27.93;16.50;;;5.80;99.90;;;;;;5074941;28;20441;-73
2021/01/18 00:02:37;;;;;;;24.73;14.77;;;5.80;99.90;;;;;;5074858;28;20476;-73
2021/01/18 00:05:04;;;;;;;24.80;15.30;;;5.80;99.90;;;;;;5074555;28;20429;-73
2021/01/18 00:07:30;;;;;;;32.87;16.50;;;5.80;99.90;;;;;;5074862;28;20433;-73
2021/01/18 00:09:57;;;;;;;37.60;16.17;;;5.90;99.90;;;;;;5074178;28;20429;-73
2021/01/18 00:12:24;;;;;;;23.40;15.03;;;5.90;99.90;;;;;;5074639;28;20456;-73
2021/01/18 00:14:50;;;;;;;32.83;15.80;;;5.90;99.90;;;;;;5074540;28;20441;-73
2021/01/18 00:17:16;;;;;;;35.63;17.37;;;5.90;99.90;;;;;;5074582;28;20451;-73
2021/01/18 00:19:42;;;;;;;30.40;14.67;;;5.90;99.90;;;;;;5074230;28;20445;-73
2021/01/18 00:22:08;;;;;;;26.10;15.50;;;5.80;99.90;;;;;;5074436;28;20469;-73
2021/01/18 00:24:35;;;;;;;29.40;17.33;;;5.80;99.90;;;;;;5074428;28;20449;-73
2021/01/18 00:27:01;;;;;;;37.93;15.60;;;5.80;99.90;;;;;;5074979;28;20478;-73
2021/01/18 00:29:28;;;;;;;30.10;15.67;;;5.80;99.90;;;;;;5074388;28;20453;-73
2021/01/18 00:31:54;;;;;;;28.53;15.83;;;5.80;99.90;;;;;;5074128;28;20488;-73
2021/01/18 00:34:20;;;;;;;25.67;15.90;;;5.80;99.90;;;;;;5073708;28;20501;-73
2021/01/18 00:36:47;;;;;;;30.43;16.13;;;5.80;99.90;;;;;;5074139;28;20483;-73
2021/01/18 00:39:14;;;;;;;27.70;15.37;;;5.70;99.90;;;;;;5073854;28;20444;-73
2021/01/18 00:41:41;;;;;;;25.97;13.70;;;5.80;99.80;;;;;;5074092;28;20468;-73
2021/01/18 00:44:08;;;;;;;28.43;14.20;;;5.70;99.70;;;;;;5074033;28;20444;-73
2021/01/18 00:46:35;;;;;;;24.63;13.27;;;5.70;99.60;;;;;;5074279;28;20475;-73
2021/01/18 00:49:01;;;;;;;23.53;13.57;;;5.70;99.60;;;;;;5073999;28;20445;-73
2021/01/18 00:51:35;;;;;;;21.80;10.97;;;5.60;99.40;;;;;;5073503;28;20480;-73
2021/01/18 00:54:01;;;;;;;22.87;9.43;;;5.60;99.00;;;;;;5073990;28;20429;-73
2021/01/18 00:56:28;;;;;;;13.70;9.27;;;5.60;99.10;;;;;;5073518;28;20907;-73
2021/01/18 00:58:54;;;;;;;14.30;9.30;;;5.60;98.60;;;;;;5074081;28;20447;-73
2021/01/18 01:01:20;;;;;;;22.40;9.33;;;5.70;98.10;;;;;;5073800;28;20437;-73
2021/01/18 01:03:47;;;;;;;22.00;9.80;;;5.70;98.00;;;;;;5073719;28;20445;-73
2021/01/18 01:06:13;;;;;;;20.93;11.13;;;5.70;98.10;;;;;;5073815;28;20445;-73
2021/01/18 01:08:40;;;;;;;20.83;12.87;;;5.70;98.40;;;;;;5073643;28;20449;-73
2021/01/18 01:11:06;;;;;;;18.03;14.47;;;5.70;98.60;;;;;;5073456;28;21005;-73
2021/01/18 01:13:32;;;;;;;29.07;14.37;;;5.70;98.80;;;;;;5073630;28;20471;-73
2021/01/18 01:15:58;;;;;;;28.60;16.70;;;5.70;99.00;;;;;;5073270;28;20945;-73
2021/01/18 01:18:25;;;;;;;23.43;14.50;;;5.70;99.10;;;;;;5073758;28;20482;-73
2021/01/18 01:20:52;;;;;;;44.07;18.10;;;5.70;99.20;;;;;;5073639;28;20448;-73
2021/01/18 01:23:19;;;;;;;25.50;15.27;;;5.70;99.30;;;;;;5073520;28;20469;-73
2021/01/18 01:25:45;;;;;;;26.73;16.37;;;5.70;99.20;;;;;;5073820;28;20441;-73
2021/01/18 01:28:11;;;;;;;27.90;17.40;;;5.70;99.20;;;;;;5073565;28;20449;-73
2021/01/18 01:30:37;;;;;;;31.67;18.23;;;5.70;99.10;;;;;;5073427;28;20476;-73
2021/01/18 01:33:04;;;;;;;31.97;19.23;;;5.70;99.20;;;;;;5073427;28;20459;-73
2021/01/18 01:35:30;;;;;;;29.60;16.73;;;5.70;99.20;;;;;;5073683;28;20453;-73
2021/01/18 01:37:57;;;;;;;28.37;16.70;;;5.70;99.10;;;;;;5073357;28;20445;-73
2021/01/18 01:40:24;;;;;;;26.77;18.00;;;5.70;99.20;;;;;;5073369;28;20498;-73
2021/01/18 01:42:50;;;;;;;27.83;17.30;;;5.70;99.20;;;;;;5073290;28;20464;-73
2021/01/18 01:45:18;;;;;;;28.37;16.93;;;5.70;99.20;;;;;;5075306;28;20455;-73
2021/01/18 01:47:46;;;;;;;29.00;18.10;;;5.70;99.00;;;;;;5077155;28;20447;-73
2021/01/18 01:50:16;;;;;;;28.60;15.53;;;5.70;99.00;;;;;;5077321;28;20526;-73
2021/01/18 01:52:46;;;;;;;26.83;16.57;;;5.80;99.00;;;;;;5077472;28;20464;-73
2021/01/18 01:55:23;;;;;;;29.10;15.87;;;5.80;98.80;;;;;;5077295;28;20440;-73
2021/01/18 01:57:50;;;;;;;27.90;15.50;;;5.70;98.80;;;;;;5077324;28;20467;-73
2021/01/18 02:00:18;;;;;;;36.47;16.83;;;5.70;98.70;;;;;;5077339;28;20444;-73
2021/01/18 02:02:44;;;;;;;36.63;16.20;;;5.70;98.60;;;;;;5077114;28;20469;-73
2021/01/18 02:05:13;;;;;;;28.13;16.70;;;5.70;98.80;;;;;;5076963;28;20441;-73
2021/01/18 02:07:40;;;;;;;26.17;15.80;;;5.70;98.80;;;;;;5077567;28;20476;-73
2021/01/18 02:10:08;;;;;;;31.10;15.20;;;5.70;98.60;;;;;;5076793;28;20440;-73
2021/01/18 02:12:36;;;;;;;32.23;14.77;;;5.70;98.40;;;;;;5077051;28;20468;-73
2021/01/18 02:15:34;;;;;;;21.77;14.03;;;5.70;98.30;;;;;;5077007;28;20448;-74
2021/01/18 02:18:21;;;;;;;24.77;16.07;;;5.70;98.30;;;;;;5076913;28;20424;-73
2021/01/18 02:21:21;;;;;;;24.70;14.07;;;5.70;98.40;;;;;;5076843;28;20779;-73
2021/01/18 02:24:26;;;;;;;32.37;14.43;;;5.70;98.30;;;;;;5076795;28;20428;-74
2021/01/18 02:27:08;;;;;;;21.67;12.93;;;5.70;98.20;;;;;;5076682;28;20795;-73
2021/01/18 02:29:48;;;;;;;22.57;13.27;;;5.70;98.10;;;;;;5076615;28;20479;-73
2021/01/18 02:32:47;;;;;;;29.40;14.20;;;5.70;98.10;;;;;;5076934;28;20488;-73
2021/01/18 02:35:33;;;;;;;24.50;12.50;;;5.70;98.00;;;;;;5076610;28;20436;-73
2021/01/18 02:38:20;;;;;;;19.17;11.90;;;5.70;97.80;;;;;;5076475;28;20448;-73
2021/01/18 02:40:56;;;;;;;19.20;11.40;;;5.80;97.60;;;;;;5076464;28;20458;-73
2021/01/18 02:43:26;;;;;;;22.70;10.43;;;5.80;97.50;;;;;;5076462;28;20502;-73
2021/01/18 02:45:53;;;;;;;21.67;11.30;;;5.80;97.30;;;;;;5076453;28;20436;-73
2021/01/18 02:48:22;;;;;;;19.73;10.57;;;5.80;97.20;;;;;;5076330;28;20444;-73
2021/01/18 02:50:50;;;;;;;14.80;10.03;;;5.80;97.10;;;;;;5076203;28;20476;-73
2021/01/18 02:53:17;;;;;;;16.83;10.70;;;5.80;96.90;;;;;;5076091;28;20468;-73
2021/01/18 02:55:43;;;;;;;22.03;14.20;;;5.80;97.00;;;;;;5075568;28;20448;-73
2021/01/18 02:58:12;;;;;;;21.47;11.70;;;5.80;97.00;;;;;;5075442;28;20546;-73
2021/01/18 03:00:44;;;;;;;22.67;11.43;;;5.70;97.10;;;;;;5076004;28;20441;-73
2021/01/18 03:03:20;;;;;;;24.23;12.30;;;5.70;97.20;;;;;;5076528;28;20783;-73
2021/01/18 03:05:55;;;;;;;18.53;11.23;;;5.70;97.40;;;;;;5076333;28;20429;-73
2021/01/18 03:08:29;;;;;;;19.03;10.90;;;5.70;97.40;;;;;;5076547;28;20425;-73
2021/01/18 03:11:02;;;;;;;20.53;12.60;;;5.70;97.60;;;;;;5075700;28;20487;-73
2021/01/18 03:13:32;;;;;;;19.47;11.30;;;5.70;97.50;;;;;;5075873;28;20880;-73
2021/01/18 03:16:02;;;;;;;18.63;11.13;;;5.60;97.50;;;;;;5076284;28;20524;-73
2021/01/18 03:18:33;;;;;;;21.23;11.63;;;5.60;97.60;;;;;;5075868;28;20890;-73
2021/01/18 03:21:01;;;;;;;21.17;12.23;;;5.60;97.70;;;;;;5075724;28;20428;-73
2021/01/18 03:23:27;;;;;;;23.10;11.77;;;5.50;97.80;;;;;;5075614;28;20472;-73
2021/01/18 03:25:55;;;;;;;20.60;13.77;;;5.60;98.00;;;;;;5075288;28;20823;-73
2021/01/18 03:28:23;;;;;;;17.10;11.70;;;5.60;98.10;;;;;;5075617;28;20440;-73
2021/01/18 03:30:50;;;;;;;22.00;11.33;;;5.60;98.00;;;;;;5075686;28;20476;-73
2021/01/18 03:33:17;;;;;;;17.77;12.40;;;5.70;98.00;;;;;;5075381;28;20461;-73
2021/01/18 03:35:44;;;;;;;26.07;12.60;;;5.70;97.90;;;;;;5075385;28;20479;-73
2021/01/18 03:38:11;;;;;;;18.53;12.83;;;5.70;97.90;;;;;;5075437;28;20491;-73
2021/01/18 03:40:38;;;;;;;26.00;12.20;;;5.70;97.60;;;;;;5075388;28;20440;-73
2021/01/18 03:43:06;;;;;;;24.60;12.60;;;5.70;97.50;;;;;;5075514;28;20467;-73
2021/01/18 03:45:35;;;;;;;25.57;12.90;;;5.70;97.50;;;;;;5075226;28;20442;-73
2021/01/18 03:48:01;;;;;;;19.77;12.00;;;5.70;97.50;;;;;;5075225;28;20444;-73
2021/01/18 03:50:27;;;;;;;27.03;11.60;;;5.70;97.50;;;;;;5075122;28;20476;-73
2021/01/18 03:52:54;;;;;;;24.83;13.10;;;5.70;97.50;;;;;;5075026;28;20522;-73
2021/01/18 03:55:22;;;;;;;21.17;13.30;;;5.70;97.50;;;;;;5075009;28;20444;-73
2021/01/18 03:57:49;;;;;;;24.73;12.80;;;5.60;97.70;;;;;;5075032;28;20449;-73
2021/01/18 04:00:17;;;;;;;23.30;12.37;;;5.60;97.90;;;;;;5075006;28;20460;-73
2021/01/18 04:02:45;;;;;;;18.90;12.00;;;5.60;97.80;;;;;;5074875;28;20464;-73
2021/01/18 04:05:12;;;;;;;22.23;12.50;;;5.70;97.80;;;;;;5075697;28;20441;-73
2021/01/18 04:07:38;;;;;;;20.73;11.73;;;5.70;97.80;;;;;;5074050;28;20965;-73
2021/01/18 04:10:05;;;;;;;20.13;11.97;;;5.60;97.80;;;;;;5074522;28;20456;-73
2021/01/18 04:12:32;;;;;;;17.10;11.03;;;5.70;97.80;;;;;;5074630;28;20465;-73
2021/01/18 04:14:58;;;;;;;24.33;12.90;;;5.60;97.70;;;;;;5074325;28;20966;-73
2021/01/18 04:17:24;;;;;;;21.07;12.00;;;5.60;97.70;;;;;;5074514;28;20452;-73
2021/01/18 04:19:50;;;;;;;15.93;11.13;;;5.60;97.70;;;;;;5074212;28;20938;-73
2021/01/18 04:22:17;;;;;;;18.90;11.43;;;5.60;97.70;;;;;;5074445;28;20464;-73
2021/01/18 04:24:43;;;;;;;22.67;11.53;;;5.60;97.60;;;;;;5074437;28;20449;-73
2021/01/18 04:27:09;;;;;;;16.63;10.27;;;5.60;97.60;;;;;;5074097;28;20986;-73
2021/01/18 04:29:36;;;;;;;17.07;11.40;;;5.50;97.50;;;;;;5074359;28;20452;-73
2021/01/18 04:32:03;;;;;;;20.33;12.87;;;5.50;97.60;;;;;;5074226;28;20534;-73
2021/01/18 04:34:29;;;;;;;19.43;10.80;;;5.50;97.60;;;;;;5074519;28;20463;-73
2021/01/18 04:36:55;;;;;;;20.33;10.90;;;5.50;97.50;;;;;;5074088;28;20445;-73
2021/01/18 04:39:22;;;;;;;22.50;13.73;;;5.50;97.60;;;;;;5074391;28;20449;-73
2021/01/18 04:41:48;;;;;;;22.60;11.50;;;5.50;97.60;;;;;;5073867;28;20471;-73
2021/01/18 04:44:16;;;;;;;18.10;11.00;;;5.50;97.70;;;;;;5074256;28;20452;-73
2021/01/18 04:46:45;;;;;;;21.93;11.20;;;5.40;97.80;;;;;;5073836;28;20965;-72
2021/01/18 04:49:13;;;;;;;27.93;12.20;;;5.40;97.90;;;;;;5073991;28;20857;-73
2021/01/18 04:51:45;;;;;;;24.80;13.23;;;5.40;98.00;;;;;;5073912;28;20480;-73
2021/01/18 04:54:16;;;;;;;22.27;12.47;;;5.40;97.90;;;;;;5073961;28;20445;-73
2021/01/18 04:57:13;;;;;;;23.43;13.70;;;5.40;98.00;;;;;;5074002;28;20436;-73
2021/01/18 04:59:44;;;;;;;26.37;12.60;;;5.40;98.10;;;;;;5074034;28;20495;-73
2021/01/18 05:02:16;;;;;;;26.90;13.40;;;5.40;98.20;;;;;;5073992;28;20518;-73
2021/01/18 05:04:44;;;;;;;26.30;14.30;;;5.40;98.20;;;;;;5073906;28;20425;-73
2021/01/18 05:07:47;;;;;;;24.17;13.70;;;5.40;98.20;;;;;;5074059;28;20452;-73
2021/01/18 05:10:16;;;;;;;24.67;13.10;;;5.40;98.30;;;;;;5073635;28;20438;-73
2021/01/18 05:12:43;;;;;;;25.10;13.10;;;5.40;98.30;;;;;;5073784;28;20471;-73
2021/01/18 05:15:11;;;;;;;20.77;13.43;;;5.40;98.50;;;;;;5073711;28;20794;-73
2021/01/18 05:17:42;;;;;;;21.27;13.40;;;5.40;98.40;;;;;;5073785;28;20448;-73
2021/01/18 05:20:10;;;;;;;28.43;13.30;;;5.40;98.50;;;;;;5073043;28;20448;-73
2021/01/18 05:22:36;;;;;;;18.87;12.53;;;5.40;98.60;;;;;;5073631;28;20516;-73
2021/01/18 05:25:06;;;;;;;23.97;13.10;;;5.30;98.60;;;;;;5073584;28;20448;-73
2021/01/18 05:27:33;;;;;;;22.97;14.20;;;5.40;98.80;;;;;;5074369;28;20456;-73
2021/01/18 05:29:59;;;;;;;26.63;14.50;;;5.40;98.80;;;;;;5073231;28;20437;-73
2021/01/18 05:32:26;;;;;;;22.67;13.57;;;5.40;98.70;;;;;;5073430;28;20492;-73
2021/01/18 05:35:12;;;;;;;28.00;14.40;;;5.40;98.60;;;;;;5073407;28;20855;-73
2021/01/18 05:37:56;;;;;;;22.77;14.33;;;5.40;98.70;;;;;;5073198;28;20907;-73
2021/01/18 05:40:23;;;;;;;23.53;13.57;;;5.50;98.80;;;;;;5073398;28;20499;-73
2021/01/18 05:42:51;;;;;;;26.67;15.07;;;5.50;98.70;;;;;;5073277;28;20457;-73
2021/01/18 05:45:29;;;;;;;25.83;14.90;;;5.40;98.60;;;;;;5073378;28;20524;-73
2021/01/18 05:47:56;;;;;;;24.50;14.43;;;5.50;98.60;;;;;;5074249;28;20803;-73
2021/01/18 05:50:25;;;;;;;21.37;12.67;;;5.50;98.60;;;;;;5073064;28;20444;-73
2021/01/18 05:52:51;;;;;;;25.33;13.90;;;5.50;98.40;;;;;;5073059;28;20464;-73
2021/01/18 05:55:20;;;;;;;24.90;13.87;;;5.50;98.40;;;;;;5073153;28;20441;-73
2021/01/18 05:57:51;;;;;;;21.57;12.50;;;5.50;98.50;;;;;;5072853;28;20935;-73
2021/01/18 06:00:32;;;;;;;26.90;14.00;;;5.60;98.40;;;;;;5073133;28;20448;-73
2021/01/18 06:03:00;;;;;;;24.50;13.13;;;5.60;98.30;;;;;;5073079;28;20471;-73
2021/01/18 06:05:32;;;;;;;23.10;14.40;;;5.50;98.10;;;;;;5073578;28;20448;-73
2021/01/18 06:08:08;;;;;;;23.53;13.63;;;5.50;98.40;;;;;;5073022;28;20463;-73
2021/01/18 06:10:35;;;;;;;29.20;13.17;;;5.60;98.50;;;;;;5072762;28;20946;-73
2021/01/18 06:13:02;;;;;;;29.33;13.90;;;5.50;98.40;;;;;;5072929;28;20889;-73
2021/01/18 06:15:29;;;;;;;25.10;13.43;;;5.50;98.50;;;;;;5072624;28;20852;-73
2021/01/18 06:17:56;;;;;;;25.60;14.37;;;5.50;98.50;;;;;;5072614;28;20976;-73
2021/01/18 06:20:24;;;;;;;30.93;13.67;;;5.50;98.50;;;;;;5072898;28;20447;-73
2021/01/18 06:22:52;;;;;;;20.67;13.57;;;5.50;98.40;;;;;;5072807;28;20461;-73
2021/01/18 06:25:19;;;;;;;20.03;13.30;;;5.60;98.40;;;;;;5073205;28;20448;-73
2021/01/18 06:27:46;;;;;;;29.87;14.70;;;5.60;98.40;;;;;;5072885;28;20467;-74
2021/01/18 06:30:23;;;;;;;36.23;16.13;;;5.60;98.30;;;;;;5072917;28;20445;-73
2021/01/18 06:32:51;;;;;;;25.77;14.20;;;5.50;98.30;;;;;;5076091;28;20464;-73
2021/01/18 06:35:22;;;;;;;21.97;13.20;;;5.50;98.40;;;;;;5076558;28;20429;-73
2021/01/18 06:37:56;;;;;;;43.00;16.23;;;5.60;98.40;;;;;;5076451;28;20433;-73
2021/01/18 06:40:27;;;;;;;29.20;14.67;;;5.60;98.40;;;;;;5076371;28;20429;-73
2021/01/18 06:42:54;;;;;;;32.80;15.00;;;5.60;98.40;;;;;;5076266;28;20464;-73
2021/01/18 06:45:21;;;;;;;25.57;14.93;;;5.60;98.40;;;;;;5075944;28;20975;-73
2021/01/18 06:47:47;;;;;;;34.47;14.60;;;5.50;98.20;;;;;;5076212;28;20437;-73
2021/01/18 06:50:14;;;;;;;26.33;15.70;;;5.50;98.30;;;;;;5075928;28;20445;-73
2021/01/18 06:52:47;;;;;;;22.60;14.33;;;5.60;98.20;;;;;;5076087;28;20507;-73
2021/01/18 06:55:24;;;;;;;29.10;13.67;;;5.60;98.20;;;;;;5076402;28;20460;-73
2021/01/18 06:58:03;;;;;;;31.37;15.43;;;5.50;98.20;;;;;;5075786;28;20902;-73
2021/01/18 07:00:31;;;;;;;24.10;14.83;;;5.50;98.30;;;;;;5076257;28;20437;-74
2021/01/18 07:02:58;;;;;;;32.57;15.57;;;5.50;98.40;;;;;;5076834;28;20507;-75
2021/01/18 07:05:36;;;;;;;30.17;15.50;;;5.50;98.40;;;;;;5076024;28;20440;-75
2021/01/18 07:08:11;;;;;;;33.70;15.30;;;5.40;98.50;;;;;;5076024;28;20448;-75
2021/01/18 07:10:40;;;;;;;27.27;14.97;;;5.50;98.50;;;;;;5075484;28;20463;-75
2021/01/18 07:13:07;;;;;;;28.47;15.20;;;5.50;98.50;;;;;;5075787;28;20465;-74
2021/01/18 07:15:38;;;;;;;30.17;16.70;;;5.50;98.40;;;;;;5075843;28;20425;-74
2021/01/18 07:18:07;;;;;;;33.53;15.90;;;5.40;98.30;;;;;;5075848;28;20476;-74
2021/01/18 07:20:39;;;;;;;29.97;16.23;;;5.40;98.30;;;;;;5075655;28;20437;-74
2021/01/18 07:23:38;;;;;;;33.37;15.60;;;5.40;98.20;;;;;;5075629;28;20468;-74
2021/01/18 07:26:13;;;;;;;32.00;15.47;;;5.40;98.20;;;;;;5075622;28;20423;-74
2021/01/18 07:28:47;;;;;;;35.47;16.27;;;5.40;98.20;;;;;;5075548;28;20523;-74
2021/01/18 07:31:18;;;;;;;37.37;18.60;;;5.30;98.30;;;;;;5075439;28;20463;-74
2021/01/18 07:33:45;;;;;;;32.40;17.10;;;5.30;98.30;;;;;;5075818;28;20421;-74
2021/01/18 07:36:22;;;;;;;24.97;17.23;;;5.30;98.40;;;;;;5075325;28;20472;-74
2021/01/18 07:38:48;;;;;;;36.50;18.70;;;5.20;98.40;;;;;;5075350;28;20429;-74
2021/01/18 07:41:15;;;;;;;34.20;17.00;;;5.10;98.30;;;;;;5075304;28;20430;-74
2021/01/18 07:43:43;;;;;;;31.17;15.70;;;5.10;98.50;;;;;;5074150;28;20811;-74
2021/01/18 07:46:35;;;;;;;36.03;16.73;;;5.20;98.50;;;;;;5075207;28;20433;-74
2021/01/18 07:49:31;;;;;;;30.37;15.50;;;5.20;98.50;;;;;;5075111;28;20459;-74
2021/01/18 07:52:26;;;;;;;31.77;15.23;;;5.20;98.50;;;;;;5074921;28;20563;-74
2021/01/18 07:54:54;;;;;;;27.30;14.40;;;5.20;98.60;;;;;;5074971;28;20498;-74
2021/01/18 07:57:30;;;;;;;25.13;13.50;;;5.20;98.50;;;;;;5074969;28;20440;-74
2021/01/18 08:00:27;;;;;;;25.00;13.30;;;5.30;98.40;;;;;;5074859;28;20899;-74
2021/01/18 08:02:56;;;;;;;25.20;12.77;;;5.30;98.20;;;;;;5070929;28;20900;-74
2021/01/18 08:05:24;;;;;;;26.77;12.77;;;5.40;98.30;;;;;;5074884;28;20449;-74
2021/01/18 08:08:07;;;;;;;31.20;12.33;;;5.40;98.10;;;;;;5074658;28;20428;-74
2021/01/18 08:10:53;;;;;;;25.50;12.50;;;5.50;98.00;;;;;;5074938;28;20464;-74
2021/01/18 08:13:41;;;;;;;34.27;13.57;;;5.50;97.70;;;;;;5074625;28;20513;-74
2021/01/18 08:16:19;;;;;;;23.40;12.30;;;5.50;97.60;;;;;;5074748;28;20438;-74
2021/01/18 08:19:01;;;;;;;20.47;11.80;;;5.50;97.60;;;;;;5074594;28;20425;-74
2021/01/18 08:21:47;;;;;;;24.80;10.87;;;5.60;97.60;;;;;;5074729;28;20472;-74
2021/01/18 08:24:16;;;;;;;32.80;11.80;;;5.60;97.30;;;;;;5074510;28;20494;-74
2021/01/18 08:27:01;;;;;;;26.20;11.67;;;5.70;97.10;;;;;;5074372;28;20426;-74
2021/01/18 08:29:38;;;;;;;35.37;12.30;;;5.70;97.20;;;;;;5074668;28;20452;-74
2021/01/18 08:32:37;;;;;;;36.80;12.73;;;5.80;97.20;;;;;;5073864;28;21043;-74
2021/01/18 08:35:07;;;;;;;18.00;10.50;;;5.80;97.00;;;;;;5074289;28;20433;-74
2021/01/18 08:37:34;;;;;;;21.83;10.70;;;5.90;96.90;;;;;;5074154;28;20452;-74
2021/01/18 08:40:04;;;;;;;28.27;12.20;;;5.90;96.70;;;;;;5074126;28;20425;-74
2021/01/18 08:42:31;;;;;;;24.73;10.80;;;5.80;96.50;;;;;;5073948;28;20475;-74
2021/01/18 08:45:00;;;;;;;28.53;11.50;;;5.90;96.50;;;;;;5074073;28;20436;-74
2021/01/18 08:47:36;;;;;;;24.40;13.07;;;5.90;96.50;;;;;;5073991;28;20437;-74
2021/01/18 08:50:29;;;;;;;34.07;12.93;;;5.90;96.50;;;;;;5073930;28;20898;-74
2021/01/18 08:52:57;;;;;;;24.80;12.37;;;5.90;96.30;;;;;;5073879;28;20484;-74
2021/01/18 08:55:51;;;;;;;29.60;13.70;;;5.90;96.30;;;;;;5073837;28;20456;-74
2021/01/18 08:58:40;;;;;;;29.67;13.37;;;5.90;96.50;;;;;;5073838;28;20421;-74
2021/01/18 09:01:15;;;;;;;36.90;13.03;;;5.90;96.30;;;;;;5073758;28;20852;-75
2021/01/18 09:03:41;;;;;;;25.77;13.53;;;5.90;96.10;;;;;;5073705;28;20534;-74
2021/01/18 09:06:08;;;;;;;33.50;12.47;;;6.00;96.30;;;;;;5073375;28;20938;-74
2021/01/18 09:08:34;;;;;;;36.13;12.50;;;5.90;96.10;;;;;;5073933;28;20437;-74
2021/01/18 09:11:02;;;;;;;28.03;11.63;;;5.90;96.10;;;;;;5073436;28;20488;-74
2021/01/18 09:13:32;;;;;;;32.80;13.20;;;6.00;96.30;;;;;;5073579;28;20468;-74
2021/01/18 09:15:59;;;;;;;21.43;11.10;;;6.00;95.90;;;;;;5073621;28;20536;-74
2021/01/18 09:18:27;;;;;;;26.40;10.80;;;6.10;95.80;;;;;;5073723;28;20474;-74
2021/01/18 09:20:55;;;;;;;19.27;11.20;;;6.10;95.70;;;;;;5074460;28;20816;-75
2021/01/18 09:23:21;;;;;;;26.57;11.67;;;6.10;95.60;;;;;;5073379;28;20476;-74
2021/01/18 09:25:56;;;;;;;24.40;11.43;;;6.10;95.50;;;;;;5073494;28;20440;-74
2021/01/18 09:28:22;;;;;;;24.90;11.23;;;6.10;95.50;;;;;;5073546;28;20432;-74
2021/01/18 09:30:48;;;;;;;24.43;10.47;;;6.00;95.40;;;;;;5073873;28;20467;-74
2021/01/18 09:33:15;;;;;;;23.43;9.37;;;6.00;95.60;;;;;;5073380;28;20514;-74
2021/01/18 09:35:43;;;;;;;24.33;11.30;;;6.00;95.40;;;;;;5073397;28;20444;-75
2021/01/18 09:38:11;;;;;;;27.20;11.20;;;6.10;95.60;;;;;;5073287;28;20445;-75
2021/01/18 09:40:39;;;;;;;17.27;9.63;;;6.10;95.50;;;;;;5073297;28;20457;-75
2021/01/18 09:43:06;;;;;;;18.83;10.00;;;6.10;95.40;;;;;;5073381;28;20465;-74
2021/01/18 09:45:33;;;;;;;28.90;10.53;;;6.10;95.50;;;;;;5072776;28;20436;-74
2021/01/18 09:48:02;;;;;;;20.80;11.20;;;6.10;95.40;;;;;;5073575;28;20451;-74
2021/01/18 09:50:28;;;;;;;20.63;9.73;;;6.20;95.50;;;;;;5072976;28;20445;-75
2021/01/18 09:52:55;;;;;;;22.30;9.70;;;6.20;95.40;;;;;;5073782;28;20492;-75
2021/01/18 09:55:25;;;;;;;22.53;9.97;;;6.30;95.30;;;;;;5073102;28;20456;-75
2021/01/18 09:57:56;;;;;;;19.20;8.93;;;6.30;95.10;;;;;;5073143;28;20884;-74
2021/01/18 10:00:25;;;;;;;10.93;7.60;;;6.30;94.80;;;;;;5073143;28;20425;-74
2021/01/18 10:02:53;;;;;;;20.03;8.00;;;6.30;94.70;;;;;;5072659;28;21001;-74
2021/01/18 10:05:28;;;;;;;16.13;8.60;;;6.30;94.60;;;;;;5073354;28;20428;-74
2021/01/18 10:07:56;;;;;;;16.83;8.50;;;6.30;94.60;;;;;;5077043;28;20439;-75
2021/01/18 10:10:22;;;;;;;17.20;8.63;;;6.30;94.60;;;;;;5076894;28;20456;-74
2021/01/18 10:12:53;;;;;;;18.80;9.23;;;6.30;94.60;;;;;;5076879;28;20480;-75
2021/01/18 10:15:27;;;;;;;15.93;8.10;;;6.30;94.40;;;;;;5076896;28;20447;-75
2021/01/18 10:17:55;;;;;;;18.67;8.43;;;6.40;94.30;;;;;;5076855;28;20439;-74
2021/01/18 10:20:23;;;;;;;19.10;7.73;;;6.40;94.30;;;;;;5076798;28;20452;-74
2021/01/18 10:22:50;;;;;;;15.30;7.60;;;6.50;94.10;;;;;;5076691;28;20862;-74
2021/01/18 10:25:18;;;;;;;23.33;8.03;;;6.50;93.90;;;;;;5076691;28;20436;-74
2021/01/18 10:27:51;;;;;;;18.60;8.17;;;6.50;94.00;;;;;;5076589;28;20444;-75
2021/01/18 10:30:20;;;;;;;23.83;8.10;;;6.50;94.10;;;;;;5076621;28;20432;-74
2021/01/18 10:32:48;;;;;;;15.13;6.77;;;6.50;94.20;;;;;;5076110;28;20851;-74
2021/01/18 10:35:29;;;;;;;16.73;5.73;;;6.60;93.90;;;;;;5077166;28;20451;-75
2021/01/18 10:38:12;;;;;;;17.80;6.30;;;6.60;93.70;;;;;;5076550;28;20433;-75
2021/01/18 10:40:40;;;;;;;15.23;7.50;;;6.60;93.60;;;;;;5076363;28;20517;-74
2021/01/18 10:43:07;;;;;;;13.20;6.57;;;6.60;93.60;;;;;;5076330;28;20843;-74
2021/01/18 10:45:39;;;;;;;15.20;6.97;;;6.70;93.70;;;;;;5076004;28;20965;-74
2021/01/18 10:48:06;;;;;;;14.87;7.17;;;6.70;93.60;;;;;;5076363;28;20425;-74
2021/01/18 10:50:33;;;;;;;12.87;6.37;;;6.70;93.30;;;;;;5075982;28;20441;-75
2021/01/18 10:53:07;;;;;;;17.67;6.83;;;6.70;93.50;;;;;;5076089;28;20534;-74
2021/01/18 10:55:34;;;;;;;11.93;6.47;;;6.70;93.10;;;;;;5075954;28;20941;-75
2021/01/18 10:58:02;;;;;;;18.63;9.73;;;6.70;93.20;;;;;;5076166;28;20451;-74
2021/01/18 11:00:29;;;;;;;12.10;6.07;;;6.70;93.10;;;;;;5076074;28;20424;-74
2021/01/18 11:03:01;;;;;;;18.50;6.90;;;6.80;93.20;;;;;;5075978;28;20456;-74
2021/01/18 11:05:29;;;;;;;11.80;6.00;;;6.80;93.10;;;;;;5076197;28;20472;-74
2021/01/18 11:07:55;;;;;;;19.83;7.20;;;6.90;93.00;;;;;;5075955;28;20444;-74
2021/01/18 11:10:22;;;;;;;13.33;6.50;;;7.00;92.80;;;;;;5075773;28;20452;-74
2021/01/18 11:12:56;;;;;;;21.60;7.50;;;7.00;92.80;;;;;;5075977;28;20488;-74
2021/01/18 11:15:30;;;;;;;9.83;5.47;;;7.10;92.70;;;;;;5075528;28;20934;-74
2021/01/18 11:17:56;;;;;;;13.67;6.50;;;7.10;92.30;;;;;;5074264;28;20926;-74
2021/01/18 11:20:24;;;;;;;15.13;6.07;;;7.00;92.40;;;;;;5075767;28;20483;-75
2021/01/18 11:22:50;;;;;;;16.37;6.17;;;6.90;92.60;;;;;;5075577;28;20496;-75
2021/01/18 11:25:17;;;;;;;13.23;5.00;;;6.90;92.70;;;;;;5075665;28;20486;-75
2021/01/18 11:27:43;;;;;;;13.60;6.03;;;6.90;92.70;;;;;;5075609;28;20424;-74
2021/01/18 11:30:10;;;;;;;20.60;5.07;;;6.90;92.70;;;;;;5075548;28;20483;-75
2021/01/18 11:32:38;;;;;;;11.30;6.30;;;6.90;92.60;;;;;;5075354;28;20481;-75
2021/01/18 11:35:05;;;;;;;16.77;5.47;;;7.00;92.60;;;;;;5075466;28;20436;-74
2021/01/18 11:37:35;;;;;;;11.67;5.50;;;7.00;92.70;;;;;;5075399;28;20804;-75
2021/01/18 11:40:01;;;;;;;14.60;5.30;;;7.10;92.50;;;;;;5075286;28;20448;-74
2021/01/18 11:42:27;;;;;;;17.43;5.90;;;7.10;92.40;;;;;;5075284;28;20456;-74
2021/01/18 11:44:54;;;;;;;12.60;5.20;;;7.20;92.50;;;;;;5075276;28;20452;-75
2021/01/18 11:47:20;;;;;;;7.00;4.73;;;7.30;92.00;;;;;;5075238;28;20429;-74
2021/01/18 11:49:47;;;;;;;11.67;5.30;;;7.40;91.90;;;;;;5075147;28;20455;-75
2021/01/18 11:52:13;;;;;;;10.00;4.80;;;7.40;91.70;;;;;;5075747;28;20511;-75
2021/01/18 11:54:39;;;;;;;10.83;5.80;;;7.50;91.90;;;;;;5075088;28;20498;-75
2021/01/18 11:57:06;;;;;;;13.33;6.00;;;7.70;91.70;;;;;;5074690;28;20931;-75
2021/01/18 11:59:32;;;;;;;15.63;4.63;;;7.90;90.90;;;;;;5074915;28;20436;-75
2021/01/18 12:01:59;;;;;;;9.80;3.67;;;8.10;90.00;;;;;;5074618;28;20963;-75
2021/01/18 12:04:25;;;;;;;8.90;4.00;;;8.30;89.60;;;;;;5074866;28;20436;-75
2021/01/18 12:06:52;;;;;;;10.60;3.97;;;8.50;88.20;;;;;;5074785;28;20448;-75
2021/01/18 12:09:18;;;;;;;16.30;4.17;;;8.70;87.80;;;;;;5074798;28;20452;-75
2021/01/18 12:11:45;;;;;;;8.27;3.10;;;8.80;87.20;;;;;;5074603;28;20990;-74
2021/01/18 12:14:11;;;;;;;10.77;3.97;;;9.00;86.50;;;;;;5074279;28;20913;-75
2021/01/18 12:16:37;;;;;;;11.60;3.93;;;9.10;86.00;;;;;;5074362;28;20441;-75
2021/01/18 12:19:04;;;;;;;10.70;3.40;;;9.00;85.20;;;;;;5074582;28;20433;-75
2021/01/18 12:21:30;;;;;;;17.00;4.27;;;8.90;85.30;;;;;;5074132;28;20879;-75
2021/01/18 12:23:57;;;;;;;4.77;3.10;;;9.00;85.30;;;;;;5074857;28;20432;-75
2021/01/18 12:26:23;;;;;;;12.67;3.73;;;8.80;85.10;;;;;;5074488;28;20435;-74
2021/01/18 12:28:50;;;;;;;9.50;3.13;;;8.70;85.50;;;;;;5074295;28;20950;-74
2021/01/18 12:31:17;;;;;;;10.90;3.57;;;8.70;85.90;;;;;;5074271;28;20472;-75
2021/01/18 12:33:44;;;;;;;13.80;3.30;;;8.70;86.50;;;;;;5074173;28;20456;-74
2021/01/18 12:36:11;;;;;;;9.97;4.10;;;8.70;85.80;;;;;;5074275;28;20446;-75
2021/01/18 12:38:39;;;;;;;7.40;3.43;;;8.80;85.90;;;;;;5074131;28;20857;-74
2021/01/18 12:41:06;;;;;;;9.83;3.23;;;9.00;83.60;;;;;;5074124;28;20448;-74
2021/01/18 12:43:33;;;;;;;12.97;3.77;;;8.90;82.40;;;;;;5074074;28;20467;-74
2021/01/18 12:46:00;;;;;;;6.67;3.10;;;8.60;82.90;;;;;;5074046;28;20440;-74
2021/01/18 12:48:27;;;;;;;8.20;3.00;;;8.40;84.50;;;;;;5074027;28;20546;-74
2021/01/18 12:50:53;;;;;;;12.23;4.17;;;8.30;85.10;;;;;;5073604;28;20444;-74
2021/01/18 12:56:00;;;;;;;10.67;3.63;;;8.10;86.00;;;;;;5073431;28;20498;-74
2021/01/18 12:58:27;;;;;;;8.90;3.30;;;8.10;86.30;;;;;;5073554;28;20964;-74